createdAt,value
2018-03-15T00:00:08.075Z,4.80
2018-03-15T00:02:37.127Z,4.80
2018-03-15T00:05:06.208Z,4.80
2018-03-15T00:07:35.253Z,4.80
2018-03-15T00:10:04.337Z,4.80
2018-03-15T00:12:33.536Z,4.80
2018-03-15T00:15:02.588Z,4.80
2018-03-15T00:17:31.656Z,4.80
2018-03-15T00:20:00.693Z,4.80
2018-03-15T00:22:29.817Z,4.90
2018-03-15T00:24:58.868Z,4.80
2018-03-15T00:27:27.951Z,4.80
2018-03-15T00:29:56.992Z,4.80
2018-03-15T00:32:26.066Z,4.70
2018-03-15T00:34:55.122Z,4.70
2018-03-15T00:37:24.972Z,4.40
2018-03-15T00:39:54.012Z,4.40
2018-03-15T00:42:23.103Z,4.40
2018-03-15T00:44:52.175Z,4.30
2018-03-15T00:47:21.269Z,4.30
2018-03-15T00:49:50.342Z,4.20
2018-03-15T00:52:19.784Z,4.20
2018-03-15T00:55:02.724Z,4.20
2018-03-15T00:57:33.363Z,4.30
2018-03-15T01:00:02.391Z,4.30
2018-03-15T01:02:31.443Z,4.40
2018-03-15T01:05:00.555Z,4.40
2018-03-15T01:07:29.663Z,4.40
2018-03-15T01:09:58.723Z,4.40
2018-03-15T01:12:27.820Z,4.40
2018-03-15T01:14:56.859Z,4.50
2018-03-15T01:17:25.893Z,4.40
2018-03-15T01:19:55.076Z,4.30
2018-03-15T01:22:24.135Z,4.40
2018-03-15T01:24:53.223Z,4.20
2018-03-15T01:27:22.899Z,4.20
2018-03-15T01:29:51.992Z,4.20
2018-03-15T01:32:21.968Z,4.30
2018-03-15T01:34:51.033Z,4.30
2018-03-15T01:37:20.068Z,4.40
2018-03-15T01:39:49.258Z,4.40
2018-03-15T01:42:18.293Z,4.40
2018-03-15T01:44:47.340Z,4.40
2018-03-15T01:47:16.415Z,4.40
2018-03-15T01:49:45.477Z,4.50
2018-03-15T01:52:14.516Z,4.40
2018-03-15T01:54:43.600Z,4.40
2018-03-15T01:57:12.660Z,4.40
2018-03-15T01:59:41.725Z,4.40
2018-03-15T02:02:10.816Z,4.30
2018-03-15T02:04:39.908Z,4.30
2018-03-15T02:07:08.955Z,4.30
2018-03-15T02:09:39.422Z,4.30
2018-03-15T02:12:08.453Z,4.30
2018-03-15T02:14:37.500Z,4.30
2018-03-15T02:17:06.571Z,4.30
2018-03-15T02:19:35.612Z,4.30
2018-03-15T02:22:05.183Z,4.30
2018-03-15T02:24:34.514Z,4.30
2018-03-15T02:27:03.576Z,4.30
2018-03-15T02:29:32.651Z,4.30
2018-03-15T02:32:03.731Z,4.30
2018-03-15T02:34:32.775Z,4.30
2018-03-15T02:37:01.835Z,4.30
2018-03-15T02:39:30.902Z,4.30
2018-03-15T02:41:59.947Z,4.30
2018-03-15T02:44:29.023Z,4.30
2018-03-15T02:46:58.103Z,4.30
2018-03-15T02:49:27.853Z,4.20
2018-03-15T02:51:56.948Z,4.20
2018-03-15T02:54:26.004Z,4.10
2018-03-15T02:56:55.041Z,4.10
2018-03-15T02:59:25.874Z,4.00
2018-03-15T03:01:54.963Z,4.00
2018-03-15T03:04:24.005Z,4.00
2018-03-15T03:06:53.131Z,4.00
2018-03-15T03:09:22.217Z,3.90
2018-03-15T03:11:51.746Z,3.90
2018-03-15T03:14:20.859Z,3.90
2018-03-15T03:16:49.920Z,3.90
2018-03-15T03:19:18.985Z,3.90
2018-03-15T03:21:48.049Z,3.80
2018-03-15T03:24:17.135Z,3.80
2018-03-15T03:26:46.190Z,3.80
2018-03-15T03:29:15.273Z,3.80
2018-03-15T03:31:45.040Z,3.80
2018-03-15T03:34:14.071Z,3.80
2018-03-15T03:36:43.143Z,3.80
2018-03-15T03:39:12.948Z,3.70
2018-03-15T03:41:42.041Z,3.70
2018-03-15T03:44:11.867Z,3.70
2018-03-15T03:46:40.947Z,3.70
2018-03-15T03:49:10.781Z,3.70
2018-03-15T03:51:39.871Z,3.70
2018-03-15T03:54:09.248Z,3.80
2018-03-15T03:56:38.316Z,3.80
2018-03-15T03:59:07.383Z,3.70
2018-03-15T04:01:36.452Z,3.80
2018-03-15T04:04:05.631Z,3.80
2018-03-15T04:06:36.151Z,3.80
2018-03-15T04:09:05.216Z,3.80
2018-03-15T04:11:34.258Z,3.70
2018-03-15T04:14:04.093Z,3.70
2018-03-15T04:16:33.181Z,3.70
2018-03-15T04:19:02.227Z,3.70
2018-03-15T04:21:31.284Z,3.70
2018-03-15T04:24:00.331Z,3.80
2018-03-15T04:26:29.425Z,3.70
2018-03-15T04:28:58.472Z,3.80
2018-03-15T04:31:27.612Z,3.80
2018-03-15T04:33:56.648Z,3.80
2018-03-15T04:36:25.743Z,3.80
2018-03-15T04:38:54.863Z,3.80
2018-03-15T04:41:23.973Z,3.80
2018-03-15T04:43:53.029Z,3.80
2018-03-15T04:46:22.087Z,3.80
2018-03-15T04:48:51.140Z,3.80
2018-03-15T04:51:20.360Z,3.80
2018-03-15T04:53:49.401Z,3.80
2018-03-15T04:56:18.444Z,3.70
2018-03-15T04:58:47.545Z,3.70
2018-03-15T05:01:16.578Z,3.70
2018-03-15T05:03:45.670Z,3.70
2018-03-15T05:06:15.516Z,3.70
2018-03-15T05:08:44.576Z,3.70
2018-03-15T05:11:13.611Z,3.70
2018-03-15T05:13:42.688Z,3.70
2018-03-15T05:16:11.725Z,3.70
2018-03-15T05:18:40.792Z,3.80
2018-03-15T05:21:09.845Z,3.80
2018-03-15T05:23:38.884Z,3.80
2018-03-15T05:26:08.305Z,3.80
2018-03-15T05:28:38.258Z,3.80
2018-03-15T05:31:07.292Z,3.80
2018-03-15T05:33:36.364Z,3.80
2018-03-15T05:36:05.469Z,3.80
2018-03-15T05:38:34.511Z,3.90
2018-03-15T05:41:03.551Z,3.90
2018-03-15T05:43:32.630Z,3.90
2018-03-15T05:46:01.667Z,3.90
2018-03-15T05:48:30.710Z,3.80
2018-03-15T05:51:00.088Z,3.90
2018-03-15T05:53:29.144Z,3.90
2018-03-15T05:55:58.209Z,3.90
2018-03-15T05:58:27.987Z,3.90
2018-03-15T06:00:57.031Z,3.90
2018-03-15T06:03:26.109Z,3.90
2018-03-15T06:05:55.528Z,3.90
2018-03-15T06:08:24.590Z,3.90
2018-03-15T06:10:53.658Z,3.90
2018-03-15T06:13:23.597Z,3.90
2018-03-15T06:15:53.404Z,3.90
2018-03-15T06:18:23.012Z,3.90
2018-03-15T06:20:52.139Z,4.00
2018-03-15T06:23:21.642Z,4.00
2018-03-15T06:25:50.678Z,4.00
2018-03-15T06:28:19.876Z,4.00
2018-03-15T06:30:49.022Z,4.00
2018-03-15T06:33:18.069Z,4.00
2018-03-15T06:35:47.143Z,4.00
2018-03-15T06:38:16.214Z,4.10
2018-03-15T06:40:46.140Z,4.10
2018-03-15T06:43:16.412Z,4.10
2018-03-15T06:45:45.458Z,4.10
2018-03-15T06:48:14.547Z,4.10
2018-03-15T06:50:43.599Z,4.10
2018-03-15T06:53:12.715Z,4.20
2018-03-15T06:55:42.181Z,4.20
2018-03-15T06:58:11.225Z,4.20
2018-03-15T07:00:40.308Z,4.20
2018-03-15T07:03:10.116Z,4.20
2018-03-15T07:05:39.963Z,4.30
2018-03-15T07:08:09.016Z,4.20
2018-03-15T07:10:38.860Z,4.30
2018-03-15T07:13:08.016Z,4.30
2018-03-15T07:15:37.063Z,4.30
2018-03-15T07:18:06.127Z,4.30
2018-03-15T07:20:35.984Z,4.30
2018-03-15T07:23:05.024Z,4.30
2018-03-15T07:25:34.840Z,4.40
2018-03-15T07:28:04.702Z,4.40
2018-03-15T07:30:33.731Z,4.30
2018-03-15T07:33:03.249Z,4.40
2018-03-15T07:35:33.562Z,4.40
2018-03-15T07:38:02.610Z,4.40
2018-03-15T07:40:31.652Z,4.50
2018-03-15T07:43:01.515Z,4.50
2018-03-15T07:45:30.563Z,4.50
2018-03-15T07:48:00.399Z,4.40
2018-03-15T07:50:30.251Z,4.40
2018-03-15T07:52:59.295Z,4.40
2018-03-15T07:55:29.209Z,4.60
2018-03-15T07:57:59.288Z,4.70
2018-03-15T08:00:28.445Z,4.80
2018-03-15T08:02:57.791Z,5.00
2018-03-15T08:05:28.165Z,5.20
2018-03-15T08:07:57.534Z,5.30
2018-03-15T08:10:28.760Z,5.60
2018-03-15T08:12:57.817Z,5.60
2018-03-15T08:15:28.116Z,5.70
2018-03-15T08:17:57.177Z,5.80
2018-03-15T08:20:26.233Z,5.90
2018-03-15T08:22:55.276Z,6.00
2018-03-15T08:25:25.931Z,6.20
2018-03-15T08:27:55.742Z,6.30
2018-03-15T08:30:24.814Z,6.30
2018-03-15T08:32:54.733Z,6.50
2018-03-15T08:35:24.013Z,6.50
2018-03-15T08:37:53.083Z,6.60
2018-03-15T08:40:22.175Z,6.70
2018-03-15T08:42:51.216Z,6.70
2018-03-15T08:45:21.136Z,6.80
2018-03-15T08:47:50.992Z,6.90
2018-03-15T08:50:20.133Z,6.90
2018-03-15T08:52:49.230Z,7.00
2018-03-15T08:55:18.426Z,7.20
2018-03-15T08:57:47.476Z,7.30
2018-03-15T09:00:17.315Z,7.10
2018-03-15T09:02:46.388Z,7.10
2018-03-15T09:05:15.443Z,7.10
2018-03-15T09:07:45.317Z,7.00
2018-03-15T09:10:14.367Z,7.00
2018-03-15T09:12:43.438Z,7.00
2018-03-15T09:15:12.588Z,7.10
2018-03-15T09:17:41.632Z,7.20
2018-03-15T09:20:11.471Z,7.40
2018-03-15T09:22:40.655Z,7.40
2018-03-15T09:25:09.699Z,7.30
2018-03-15T09:27:38.739Z,7.40
2018-03-15T09:30:07.821Z,7.50
2018-03-15T09:32:38.096Z,7.70
2018-03-15T09:35:07.138Z,7.70
2018-03-15T09:37:36.985Z,7.80
2018-03-15T09:40:06.045Z,7.80
2018-03-15T09:42:35.867Z,7.80
2018-03-15T09:45:05.709Z,7.80
2018-03-15T09:47:34.761Z,7.80
2018-03-15T09:50:03.924Z,8.00
2018-03-15T09:52:33.666Z,8.20
2018-03-15T09:55:03.521Z,8.50
2018-03-15T09:57:32.609Z,8.90
2018-03-15T10:00:01.730Z,9.30
2018-03-15T10:02:31.399Z,9.30
2018-03-15T10:05:01.332Z,9.30
2018-03-15T10:07:30.398Z,9.20
2018-03-15T10:09:59.482Z,9.20
2018-03-15T10:12:29.351Z,9.00
2018-03-15T10:14:58.411Z,9.00
2018-03-15T10:17:27.497Z,9.10
2018-03-15T10:19:56.598Z,9.10
2018-03-15T10:22:25.681Z,9.10
2018-03-15T10:24:54.728Z,9.00
2018-03-15T10:27:23.811Z,9.30
2018-03-15T10:29:53.376Z,9.80
2018-03-15T10:32:22.436Z,10.50
2018-03-15T10:34:57.016Z,10.90
2018-03-15T10:37:26.905Z,11.30
2018-03-15T10:39:56.813Z,11.80
2018-03-15T10:42:26.663Z,12.30
2018-03-15T10:44:57.131Z,12.30
2018-03-15T10:47:28.084Z,12.70
2018-03-15T10:49:57.144Z,12.80
2018-03-15T10:52:26.497Z,12.90
2018-03-15T10:54:56.942Z,13.10
2018-03-15T10:57:26.068Z,13.00
2018-03-15T10:59:56.812Z,13.40
2018-03-15T11:02:31.327Z,13.80
2018-03-15T11:05:01.257Z,14.30
2018-03-15T11:07:30.392Z,14.70
2018-03-15T11:09:59.466Z,14.70
2018-03-15T11:12:28.627Z,14.70
2018-03-15T11:14:57.736Z,14.70
2018-03-15T11:17:27.119Z,15.00
2018-03-15T11:19:57.323Z,15.30
2018-03-15T11:22:27.507Z,16.00
2018-03-15T11:24:57.353Z,16.70
2018-03-15T11:27:27.136Z,16.70
2018-03-15T11:29:57.673Z,16.50
2018-03-15T11:32:26.839Z,16.50
2018-03-15T11:34:56.017Z,16.50
2018-03-15T11:37:25.124Z,16.40
2018-03-15T11:39:54.301Z,15.70
2018-03-15T11:42:23.414Z,15.20
2018-03-15T11:44:53.128Z,15.40
2018-03-15T11:47:22.182Z,15.80
2018-03-15T11:49:51.231Z,15.80
2018-03-15T11:52:21.091Z,15.80
2018-03-15T11:54:51.041Z,15.70
2018-03-15T11:57:21.102Z,15.50
2018-03-15T11:59:51.539Z,15.70
2018-03-15T12:02:21.493Z,15.70
2018-03-15T12:04:52.163Z,15.60
2018-03-15T12:07:21.281Z,15.10
2018-03-15T12:09:50.366Z,14.60
2018-03-15T12:12:19.459Z,14.10
2018-03-15T12:14:48.612Z,13.60
2018-03-15T12:17:17.771Z,13.30
2018-03-15T12:19:46.815Z,13.10
2018-03-15T12:22:17.864Z,13.30
2018-03-15T12:24:46.933Z,13.60
2018-03-15T12:27:16.024Z,13.60
2018-03-15T12:29:45.073Z,13.80
2018-03-15T12:32:14.159Z,14.10
2018-03-15T12:34:44.011Z,14.90
2018-03-15T12:37:13.060Z,14.80
2018-03-15T12:39:42.927Z,15.20
2018-03-15T12:42:12.272Z,15.20
2018-03-15T12:44:42.180Z,15.30
2018-03-15T12:47:11.275Z,15.20
2018-03-15T12:49:41.120Z,14.70
2018-03-15T12:52:10.227Z,14.70
2018-03-15T12:54:39.907Z,14.40
2018-03-15T12:57:08.986Z,14.00
2018-03-15T12:59:38.838Z,13.00
2018-03-15T13:02:07.916Z,13.00
2018-03-15T13:04:38.507Z,12.60
2018-03-15T13:07:08.427Z,12.40
2018-03-15T13:09:37.528Z,12.10
2018-03-15T13:12:06.579Z,11.90
2018-03-15T13:14:35.640Z,11.70
2018-03-15T13:17:05.484Z,11.40
2018-03-15T13:19:34.595Z,11.40
2018-03-15T13:22:03.690Z,11.30
2018-03-15T13:24:32.764Z,11.20
2018-03-15T13:27:01.895Z,11.20
2018-03-15T13:29:30.907Z,11.10
2018-03-15T13:32:00.004Z,11.00
2018-03-15T13:37:03.287Z,10.80
2018-03-15T13:39:32.322Z,10.60
2018-03-15T13:42:01.446Z,10.50
2018-03-15T13:44:30.562Z,10.40
2018-03-15T13:46:59.641Z,10.30
2018-03-15T13:49:28.858Z,10.20
2018-03-15T13:51:58.361Z,10.20
2018-03-15T13:54:28.136Z,10.10
2018-03-15T13:56:57.212Z,10.10
2018-03-15T13:59:27.002Z,9.80
2018-03-15T14:01:56.094Z,9.80
2018-03-15T14:04:25.263Z,9.70
2018-03-15T14:06:54.336Z,9.70
2018-03-15T14:09:23.383Z,9.60
2018-03-15T14:11:52.498Z,9.60
2018-03-15T14:14:22.308Z,9.50
2018-03-15T14:16:52.124Z,9.50
2018-03-15T14:19:21.935Z,9.50
2018-03-15T14:21:52.662Z,9.50
2018-03-15T14:24:22.490Z,9.50
2018-03-15T14:26:51.517Z,9.40
2018-03-15T14:29:20.633Z,9.50
2018-03-15T14:31:49.744Z,9.50
2018-03-15T14:34:18.835Z,9.50
2018-03-15T14:36:47.902Z,9.50
2018-03-15T14:39:16.936Z,9.50
2018-03-15T14:41:46.785Z,9.50
2018-03-15T14:44:16.073Z,9.50
2018-03-15T14:46:45.084Z,9.60
2018-03-15T14:49:14.142Z,9.70
2018-03-15T14:51:43.945Z,9.60
2018-03-15T14:54:13.934Z,9.60
2018-03-15T14:56:43.048Z,9.70
2018-03-15T14:59:12.091Z,9.70
2018-03-15T15:01:41.173Z,9.60
2018-03-15T15:04:11.002Z,9.60
2018-03-15T15:06:40.064Z,9.60
2018-03-15T15:09:09.897Z,9.60
2018-03-15T15:11:39.627Z,9.60
2018-03-15T15:14:08.775Z,9.60
2018-03-15T15:16:37.827Z,9.50
2018-03-15T15:19:06.898Z,9.50
2018-03-15T15:21:35.919Z,9.50
2018-03-15T15:24:04.946Z,9.50
2018-03-15T15:26:34.051Z,9.50
2018-03-15T15:29:03.911Z,9.50
2018-03-15T15:31:33.000Z,9.50
2018-03-15T15:34:02.853Z,9.50
2018-03-15T15:36:31.877Z,9.50
2018-03-15T15:39:00.950Z,9.30
2018-03-15T15:41:30.163Z,9.30
2018-03-15T15:43:59.965Z,9.20
2018-03-15T15:46:29.002Z,9.20
2018-03-15T15:48:58.132Z,9.30
2018-03-15T15:51:27.153Z,9.20
2018-03-15T15:53:56.967Z,9.20
2018-03-15T15:56:26.840Z,9.20
2018-03-15T15:58:55.865Z,9.10
2018-03-15T16:01:25.693Z,9.10
2018-03-15T16:03:54.823Z,9.00
2018-03-15T16:06:23.862Z,8.90
2018-03-15T16:08:52.885Z,8.90
2018-03-15T16:11:22.050Z,8.90
2018-03-15T16:13:51.080Z,8.80
2018-03-15T16:16:20.184Z,8.70
2018-03-15T16:18:49.361Z,8.70
2018-03-15T16:21:19.169Z,8.70
2018-03-15T16:23:48.978Z,8.60
2018-03-15T16:26:18.787Z,8.60
2018-03-15T16:28:48.670Z,8.50
2018-03-15T16:31:17.861Z,8.50
2018-03-15T16:33:46.849Z,8.50
2018-03-15T16:36:15.947Z,8.40
2018-03-15T16:38:44.980Z,8.30
2018-03-15T16:41:14.815Z,8.30
2018-03-15T16:43:43.846Z,8.30
2018-03-15T16:46:12.919Z,8.30
2018-03-15T16:48:41.960Z,8.20
2018-03-15T16:51:11.496Z,8.20
2018-03-15T16:53:40.518Z,8.20
2018-03-15T16:56:09.658Z,8.10
2018-03-15T16:58:38.665Z,8.10
2018-03-15T17:01:08.467Z,8.20
2018-03-15T17:03:37.545Z,8.20
2018-03-15T17:06:06.592Z,8.10
2018-03-15T17:08:35.729Z,8.10
2018-03-15T17:11:04.752Z,8.10
2018-03-15T17:13:33.794Z,8.10
2018-03-15T17:16:02.860Z,8.10
2018-03-15T17:18:31.914Z,8.00
2018-03-15T17:21:00.984Z,8.00
2018-03-15T17:23:30.018Z,8.00
2018-03-15T17:25:59.896Z,8.10
2018-03-15T17:28:29.006Z,8.00
2018-03-15T17:30:58.039Z,8.10
2018-03-15T17:33:27.097Z,8.00
2018-03-15T17:35:56.243Z,8.10
2018-03-15T17:38:26.044Z,8.10
2018-03-15T17:40:55.084Z,8.10
2018-03-15T17:43:24.228Z,8.10
2018-03-15T17:45:54.042Z,8.00
2018-03-15T17:48:23.928Z,8.00
2018-03-15T17:50:57.304Z,7.90
2018-03-15T17:53:29.415Z,7.90
2018-03-15T17:55:59.632Z,7.90
2018-03-15T17:58:28.698Z,7.90
2018-03-15T18:00:58.787Z,7.90
2018-03-15T18:03:28.114Z,7.90
2018-03-15T18:05:58.627Z,7.80
2018-03-15T18:08:28.858Z,7.70
2018-03-15T18:10:58.854Z,7.70
2018-03-15T18:13:28.265Z,7.60
2018-03-15T18:15:57.749Z,7.70
2018-03-15T18:18:28.662Z,7.60
2018-03-15T18:20:58.928Z,7.60
2018-03-15T18:23:29.018Z,7.60
2018-03-15T18:25:59.219Z,7.60
2018-03-15T18:28:29.432Z,7.60
2018-03-15T18:30:59.594Z,7.60
2018-03-15T18:33:29.222Z,7.60
2018-03-15T18:35:58.507Z,7.60
2018-03-15T18:38:30.105Z,7.70
2018-03-15T18:41:00.848Z,7.60
2018-03-15T18:43:30.108Z,7.70
2018-03-15T18:45:59.454Z,7.70
2018-03-15T18:48:30.085Z,7.60
2018-03-15T18:51:00.274Z,7.70
2018-03-15T18:53:30.382Z,7.60
2018-03-15T18:55:59.501Z,7.60
2018-03-15T18:58:30.339Z,7.60
2018-03-15T19:01:03.688Z,7.60
2018-03-15T19:03:32.885Z,7.60
2018-03-15T19:06:02.600Z,7.60
2018-03-15T19:08:32.564Z,7.60
2018-03-15T19:11:02.589Z,7.50
2018-03-15T19:13:31.780Z,7.50
2018-03-15T19:16:01.660Z,7.50
2018-03-15T19:18:31.807Z,7.50
2018-03-15T19:21:00.976Z,7.50
2018-03-15T19:23:30.133Z,7.40
2018-03-15T19:26:00.200Z,7.40
2018-03-15T19:28:29.361Z,7.40
2018-03-15T19:30:58.604Z,7.30
2018-03-15T19:33:27.836Z,7.30
2018-03-15T19:35:57.855Z,7.30
2018-03-15T19:38:27.878Z,7.20
2018-03-15T19:40:57.882Z,7.10
2018-03-15T19:43:28.013Z,7.10
2018-03-15T19:45:58.109Z,7.10
2018-03-15T19:48:28.323Z,7.10
2018-03-15T19:50:57.726Z,7.20
2018-03-15T19:53:28.132Z,7.20
2018-03-15T19:55:57.464Z,7.30
2018-03-15T19:58:27.094Z,7.20
2018-03-15T20:00:57.286Z,7.20
2018-03-15T20:03:26.694Z,7.20
2018-03-15T20:05:56.039Z,7.20
2018-03-15T20:08:25.340Z,7.10
2018-03-15T20:10:54.619Z,7.10
2018-03-15T20:13:24.769Z,7.10
2018-03-15T20:15:54.028Z,7.10
2018-03-15T20:18:24.032Z,7.10
2018-03-15T20:20:53.289Z,7.10
2018-03-15T20:23:28.091Z,7.10
2018-03-15T20:25:57.956Z,7.10
2018-03-15T20:28:32.432Z,7.20
2018-03-15T20:31:01.664Z,7.10
2018-03-15T20:33:36.361Z,7.10
2018-03-15T20:36:06.335Z,7.10
2018-03-15T20:38:35.449Z,7.10
2018-03-15T20:41:10.955Z,7.10
2018-03-15T20:43:40.012Z,7.00
2018-03-15T20:46:15.222Z,7.10
2018-03-15T20:48:51.310Z,7.10
2018-03-15T20:51:20.407Z,7.10
2018-03-15T20:53:49.532Z,7.10
2018-03-15T20:56:18.577Z,7.10
2018-03-15T20:58:47.653Z,7.10
2018-03-15T21:01:16.709Z,7.10
2018-03-15T21:03:45.774Z,7.10
2018-03-15T21:06:14.843Z,7.10
2018-03-15T21:08:44.552Z,7.10
2018-03-15T21:11:13.637Z,7.10
2018-03-15T21:13:43.494Z,7.10
2018-03-15T21:16:12.586Z,7.00
2018-03-15T21:18:41.668Z,7.10
2018-03-15T21:21:10.713Z,7.10
2018-03-15T21:23:39.790Z,7.00
2018-03-15T21:26:08.840Z,7.10
2018-03-15T21:28:37.975Z,7.10
2018-03-15T21:31:07.005Z,7.10
2018-03-15T21:33:36.834Z,7.00
2018-03-15T21:36:05.947Z,7.00
2018-03-15T21:38:35.011Z,7.10
2018-03-15T21:41:04.043Z,7.00
2018-03-15T21:43:33.120Z,7.10
2018-03-15T21:46:02.167Z,7.00
2018-03-15T21:48:31.256Z,7.00
2018-03-15T21:51:00.319Z,7.00
2018-03-15T21:53:29.407Z,7.00
2018-03-15T21:55:58.485Z,6.90
2018-03-15T21:58:27.585Z,6.90
2018-03-15T22:00:56.627Z,6.90
2018-03-15T22:03:25.843Z,6.80
2018-03-15T22:05:54.886Z,6.80
2018-03-15T22:08:23.971Z,6.80
2018-03-15T22:10:53.015Z,6.80
2018-03-15T22:13:22.095Z,6.70
2018-03-15T22:15:51.131Z,6.70
2018-03-15T22:18:20.225Z,6.70
2018-03-15T22:20:50.035Z,6.70
2018-03-15T22:23:20.010Z,6.70
2018-03-15T22:25:49.035Z,6.70
2018-03-15T22:28:18.103Z,6.70
2018-03-15T22:30:47.172Z,6.70
2018-03-15T22:33:16.206Z,6.70
2018-03-15T22:35:45.265Z,6.70
2018-03-15T22:38:14.321Z,6.70
2018-03-15T22:40:44.227Z,6.60
2018-03-15T22:43:13.292Z,6.50
2018-03-15T22:45:42.370Z,6.50
2018-03-15T22:48:12.234Z,6.50
2018-03-15T22:50:42.034Z,6.50
2018-03-15T22:53:11.929Z,6.60
2018-03-15T22:55:40.970Z,6.60
2018-03-15T22:58:10.002Z,6.60
2018-03-15T23:00:39.099Z,6.60
2018-03-15T23:03:08.133Z,6.60
2018-03-15T23:05:37.237Z,6.60
2018-03-15T23:08:07.119Z,6.60
2018-03-15T23:10:36.194Z,6.50
2018-03-15T23:13:05.230Z,6.50
2018-03-15T23:15:35.038Z,6.50
2018-03-15T23:18:04.873Z,6.50
2018-03-15T23:20:34.668Z,6.50
2018-03-15T23:23:05.429Z,6.50
2018-03-15T23:25:34.492Z,6.50
2018-03-15T23:28:03.750Z,6.50
2018-03-15T23:30:32.794Z,6.50
2018-03-15T23:33:03.417Z,6.50
2018-03-15T23:35:33.254Z,6.40
2018-03-15T23:38:02.289Z,6.40
2018-03-15T23:40:31.360Z,6.40
2018-03-15T23:43:00.400Z,6.40
2018-03-15T23:45:29.471Z,6.40
2018-03-15T23:47:58.539Z,6.40
2018-03-15T23:50:27.588Z,6.40
2018-03-15T23:52:57.414Z,6.40
2018-03-15T23:55:27.222Z,6.40
2018-03-15T23:57:56.283Z,6.40
